Řízení letového provozu České republiky
Letiste: LKTB Aktualizace: 27.02.2017 11:06:08  UTC
 METAR LKTB 27.02. 11:00 ...
METAR LKTB 271100Z 14009KT CAVOK 09/01 Q1012 NOSIG RMK REG QNH 1004=
 TAF LKTB 27.02. 05:00 ...
TAF LKTB 270500Z 2706/2812 VRB02KT CAVOK      BECMG 2708/2710 12010KT      TEMPO 2712/2717 15014G24KT=